Time;durP1;ratioP1;P1;durP2;ratioP2;P2;SDS_P1;SDS_P2;PMS_P1;PMS_P2;Temp;Humidity;BMP_temperature;BMP_pressure;BME280_temperature;BME280_humidity;BME280_pressure;Samples;Min_cycle;Max_cycle;Signal;HPM_P1;HPM_P2
2021/12/06 00:02:18;;;;;;;9.75;3.83;;;;;;;1.94;100.00;99812.28;20725789;28;20058;-84
2021/12/06 00:12:20;;;;;;;10.10;4.65;;;;;;;1.85;100.00;99830.25;20745080;28;20053;-84
2021/12/06 00:22:25;;;;;;;16.58;9.05;;;;;;;1.75;100.00;99827.56;20762719;28;20138;-83
2021/12/06 00:32:27;;;;;;;6.95;3.80;;;;;;;1.62;100.00;99835.16;20749269;28;20053;-84
2021/12/06 00:42:34;;;;;;;6.05;3.03;;;;;;;1.34;100.00;99844.28;20724837;28;21208;-84
2021/12/06 00:52:36;;;;;;;9.80;4.63;;;;;;;1.30;100.00;99847.69;20729302;28;20069;-85
2021/12/06 01:02:38;;;;;;;9.65;5.10;;;;;;;1.36;100.00;99858.06;20726806;28;20061;-84
2021/12/06 01:12:40;;;;;;;12.77;7.28;;;;;;;1.35;100.00;99857.22;20719103;28;20042;-83
2021/12/06 01:22:47;;;;;;;11.88;5.93;;;;;;;1.41;100.00;99880.50;20738889;28;20503;-84
2021/12/06 01:43:09;;;;;;;10.00;5.15;;;;;;;1.53;100.00;99915.88;20741179;28;20128;-84
2021/12/06 01:53:10;;;;;;;12.77;5.75;;;;;;;1.56;100.00;99934.00;20721916;28;20426;-85
2021/12/06 02:03:12;;;;;;;13.05;6.80;;;;;;;1.57;100.00;99927.13;20741937;28;20108;-85
2021/12/06 02:13:14;;;;;;;14.07;7.88;;;;;;;1.51;100.00;99925.34;20713283;28;20088;-85
2021/12/06 02:23:17;;;;;;;12.90;7.32;;;;;;;1.30;100.00;99920.75;20731983;28;20046;-84
2021/12/06 02:33:19;;;;;;;12.38;7.45;;;;;;;1.25;100.00;99958.53;20727247;28;20046;-85
2021/12/06 02:43:21;;;;;;;13.25;7.40;;;;;;;1.25;100.00;99979.16;20726627;28;20412;-85
2021/12/06 02:53:25;;;;;;;13.80;7.90;;;;;;;1.32;100.00;99991.28;20716824;28;20057;-83
2021/12/06 03:03:26;;;;;;;12.67;7.77;;;;;;;1.23;100.00;99998.88;20720155;28;20093;-85
2021/12/06 03:13:28;;;;;;;16.90;9.00;;;;;;;1.18;100.00;99992.78;20733838;28;20069;-85
2021/12/06 03:23:31;;;;;;;15.77;8.38;;;;;;;1.13;100.00;100010.75;20741487;28;20133;-85
2021/12/06 03:33:39;;;;;;;16.77;9.07;;;;;;;1.13;100.00;100021.06;20756267;28;20046;-84
2021/12/06 03:43:42;;;;;;;16.73;9.13;;;;;;;1.11;100.00;100032.22;20731590;28;20057;-84
2021/12/06 03:53:44;;;;;;;16.15;8.90;;;;;;;1.20;100.00;100037.53;20742159;28;20105;-85
2021/12/06 04:03:47;;;;;;;16.08;8.65;;;;;;;1.22;100.00;100052.16;20746796;28;20042;-84
2021/12/06 04:13:49;;;;;;;19.30;10.25;;;;;;;1.26;100.00;100064.25;20745999;28;20056;-84
2021/12/06 04:23:51;;;;;;;20.83;11.00;;;;;;;1.42;100.00;100080.84;20725665;28;20049;-83
2021/12/06 04:33:54;;;;;;;18.77;10.85;;;;;;;1.44;100.00;100083.47;20742043;28;20045;-83
2021/12/06 04:44:10;;;;;;;16.83;9.52;;;;;;;1.39;100.00;100100.56;20737272;28;20077;-84
2021/12/06 04:54:15;;;;;;;14.25;8.65;;;;;;;1.30;100.00;100101.31;20716810;28;20547;-84
2021/12/06 05:04:22;;;;;;;15.05;7.65;;;;;;;1.26;100.00;100115.84;20745266;28;20097;-84
2021/12/06 05:14:25;;;;;;;12.90;7.15;;;;;;;1.25;100.00;100126.16;20755182;28;20053;-84
2021/12/06 05:24:27;;;;;;;13.23;7.38;;;;;;;1.19;100.00;100144.94;20731947;28;20062;-84
2021/12/06 05:34:37;;;;;;;14.55;7.55;;;;;;;1.22;100.00;100159.59;20719301;28;20061;-84
2021/12/06 05:44:41;;;;;;;12.80;6.13;;;;;;;1.33;100.00;100162.38;20735299;28;20046;-84
2021/12/06 05:54:43;;;;;;;12.75;7.00;;;;;;;1.46;100.00;100182.38;20737066;28;20058;-84
2021/12/06 06:04:44;;;;;;;12.05;5.28;;;;;;;1.41;100.00;100222.72;20705598;28;20101;-83
2021/12/06 06:14:46;;;;;;;11.82;6.30;;;;;;;1.48;100.00;100238.31;20732589;28;20049;-84
2021/12/06 06:24:47;;;;;;;12.38;7.03;;;;;;;1.56;100.00;100261.69;20726578;28;20050;-84
2021/12/06 06:34:49;;;;;;;14.05;6.68;;;;;;;1.56;100.00;100272.00;20695182;28;20090;-82
2021/12/06 06:44:51;;;;;;;13.98;6.55;;;;;;;1.58;100.00;100278.06;20692636;28;20102;-84
2021/12/06 06:54:53;;;;;;;9.20;4.30;;;;;;;1.46;100.00;100299.34;20696489;28;20050;-83
2021/12/06 07:04:54;;;;;;;9.00;4.78;;;;;;;1.42;100.00;100302.69;20721100;28;20109;-82
2021/12/06 07:14:56;;;;;;;8.43;4.15;;;;;;;1.46;100.00;100312.25;20729078;28;20049;-82
2021/12/06 07:24:58;;;;;;;6.53;3.72;;;;;;;1.60;100.00;100329.72;20728120;28;20038;-82
2021/12/06 07:34:59;;;;;;;8.18;4.32;;;;;;;1.68;100.00;100338.47;20745235;28;20054;-82
2021/12/06 07:45:03;;;;;;;7.10;4.03;;;;;;;1.63;100.00;100358.13;20728166;28;20049;-85
2021/12/06 07:55:08;;;;;;;7.20;3.22;;;;;;;1.68;100.00;100370.31;20700182;28;20050;-85
2021/12/06 08:05:30;;;;;;;6.85;3.50;;;;;;;1.79;100.00;100358.47;20724146;28;20055;-85
2021/12/06 08:15:32;;;;;;;8.00;4.13;;;;;;;1.88;100.00;100377.56;20688193;28;20042;-85
2021/12/06 08:25:34;;;;;;;8.90;3.78;;;;;;;1.95;100.00;100375.13;20698791;28;20049;-85
2021/12/06 08:35:40;;;;;;;6.93;3.90;;;;;;;2.16;100.00;100377.25;20717532;28;20050;-84
2021/12/06 08:45:44;;;;;;;9.13;5.15;;;;;;;2.20;100.00;100384.16;20724482;28;20056;-84
2021/12/06 08:55:45;;;;;;;9.60;5.00;;;;;;;2.27;100.00;100393.78;20727572;28;20049;-85
2021/12/06 09:05:50;;;;;;;8.73;4.20;;;;;;;2.41;100.00;100404.38;20722801;28;20392;-84
2021/12/06 09:15:52;;;;;;;18.63;4.07;;;;;;;2.35;99.56;100399.09;20720899;28;20046;-83
2021/12/06 09:25:54;;;;;;;11.05;4.47;;;;;;;2.58;99.33;100396.88;20714310;28;20078;-83
2021/12/06 09:36:05;;;;;;;9.07;5.35;;;;;;;2.79;98.48;100397.25;21109332;27;20416;-74
2021/12/06 09:46:09;;;;;;;11.73;7.15;;;;;;;3.09;98.32;100398.53;21043001;28;20074;-75
2021/12/06 09:56:15;;;;;;;10.30;6.27;;;;;;;3.10;97.80;100408.03;21038052;28;20048;-74
2021/12/06 10:06:17;;;;;;;20.42;10.18;;;;;;;3.54;98.14;100402.59;21093672;28;20097;-75
2021/12/06 10:16:21;;;;;;;17.08;9.00;;;;;;;3.54;98.00;100390.53;21124847;28;20056;-73
2021/12/06 10:26:28;;;;;;;14.77;7.53;;;;;;;3.47;97.90;100385.25;21123541;28;20070;-72
2021/12/06 10:36:29;;;;;;;17.20;8.85;;;;;;;3.44;99.01;100392.97;21122988;28;20126;-72
2021/12/06 10:46:33;;;;;;;17.88;9.13;;;;;;;3.77;97.78;100372.69;21072848;28;20551;-73
2021/12/06 10:56:43;;;;;;;14.55;7.82;;;;;;;3.64;98.63;100376.00;21064881;28;20532;-74
2021/12/06 11:06:48;;;;;;;11.57;6.85;;;;;;;3.73;97.18;100365.72;21063206;28;20073;-75
2021/12/06 11:16:53;;;;;;;9.73;5.85;;;;;;;3.79;97.27;100358.03;21061360;28;20101;-73
2021/12/06 11:27:00;;;;;;;9.45;5.53;;;;;;;4.00;96.44;100343.56;21062602;28;20463;-73
2021/12/06 11:37:04;;;;;;;9.77;4.72;;;;;;;4.14;92.90;100356.66;21061255;28;20043;-73
2021/12/06 11:47:08;;;;;;;12.07;4.57;;;;;;;4.33;91.03;100343.88;21060973;28;20103;-74
2021/12/06 11:57:17;;;;;;;8.25;5.10;;;;;;;4.38;91.25;100347.38;21061172;28;20185;-73
2021/12/06 12:07:18;;;;;;;10.40;4.85;;;;;;;4.51;89.06;100342.31;21054587;28;20109;-74
2021/12/06 12:17:20;;;;;;;9.82;4.20;;;;;;;4.62;87.88;100348.44;21056348;28;20039;-74
2021/12/06 12:27:42;;;;;;;8.50;4.70;;;;;;;4.42;89.14;100334.47;21048030;28;20460;-73
2021/12/06 12:37:45;;;;;;;7.18;3.60;;;;;;;4.41;85.83;100330.09;21047750;28;20093;-73
2021/12/06 12:47:47;;;;;;;8.25;3.83;;;;;;;4.34;85.96;100335.25;21051545;28;20051;-74
2021/12/06 12:57:50;;;;;;;8.25;3.80;;;;;;;4.39;86.56;100327.50;21056066;28;20044;-75
2021/12/06 13:08:00;;;;;;;7.28;3.72;;;;;;;4.26;87.40;100321.34;21049742;28;20047;-74
2021/12/06 13:18:07;;;;;;;16.00;6.55;;;;;;;4.27;86.85;100312.75;21054908;28;20090;-75
2021/12/06 13:28:10;;;;;;;9.55;4.80;;;;;;;4.35;87.40;100308.47;21050409;28;20048;-75
2021/12/06 13:38:23;;;;;;;9.15;4.32;;;;;;;4.23;86.60;100292.84;21042358;28;20086;-75
2021/12/06 13:48:33;;;;;;;6.25;3.28;;;;;;;4.17;84.46;100285.00;21044213;28;20074;-75
2021/12/06 13:58:36;;;;;;;6.57;3.00;;;;;;;4.23;82.98;100292.84;21039486;28;20503;-74
2021/12/06 14:08:50;;;;;;;8.02;3.97;;;;;;;4.24;83.95;100296.28;21048119;28;20101;-74
2021/12/06 14:18:51;;;;;;;9.05;5.20;;;;;;;4.09;84.27;100302.22;21024427;28;20450;-74
2021/12/06 14:28:54;;;;;;;11.55;6.47;;;;;;;4.26;83.90;100304.94;21064106;28;20430;-74
2021/12/06 14:38:55;;;;;;;11.75;6.38;;;;;;;4.23;86.54;100310.09;21044478;28;20036;-75
2021/12/06 14:48:57;;;;;;;11.32;6.68;;;;;;;4.21;88.18;100302.28;21050061;28;20528;-74
2021/12/06 14:59:00;;;;;;;14.07;7.60;;;;;;;4.07;88.78;100301.31;21062195;28;20040;-76
2021/12/06 15:09:03;;;;;;;12.57;7.03;;;;;;;4.07;89.82;100311.66;21061147;28;20484;-76
2021/12/06 15:19:13;;;;;;;12.75;7.57;;;;;;;4.00;90.63;100302.13;21061146;28;20048;-77
2021/12/06 15:29:20;;;;;;;15.82;9.02;;;;;;;3.94;92.22;100279.63;21044352;28;20043;-75
2021/12/06 15:39:22;;;;;;;20.05;11.65;;;;;;;3.86;92.21;100264.00;21059223;28;20074;-78
2021/12/06 15:49:28;;;;;;;19.95;12.25;;;;;;;3.77;93.01;100250.97;21054023;28;20102;-78
2021/12/06 15:59:30;;;;;;;16.27;9.70;;;;;;;3.60;94.29;100231.84;21057425;28;20048;-77
2021/12/06 16:09:31;;;;;;;14.88;8.90;;;;;;;3.45;94.23;100223.88;21051653;28;20040;-79
2021/12/06 16:19:34;;;;;;;17.55;10.27;;;;;;;3.14;95.67;100213.22;21057736;28;20044;-78
2021/12/06 16:29:39;;;;;;;26.05;13.77;;;;;;;2.89;96.39;100191.38;21058076;28;20047;-79
2021/12/06 16:40:05;;;;;;;22.65;13.13;;;;;;;2.75;96.91;100180.88;21054453;28;20044;-78
2021/12/06 16:50:12;;;;;;;19.23;11.20;;;;;;;2.57;97.67;100198.72;21053715;28;20036;-80
2021/12/06 17:00:19;;;;;;;19.33;11.73;;;;;;;2.51;97.52;100188.31;21051353;28;20085;-79
2021/12/06 17:10:41;;;;;;;21.08;10.95;;;;;;;2.51;97.27;100183.16;21053310;28;20471;-78
2021/12/06 17:20:51;;;;;;;20.52;11.68;;;;;;;2.48;96.33;100172.75;21034712;28;20040;-79
2021/12/06 17:30:59;;;;;;;21.80;13.35;;;;;;;2.58;96.39;100172.03;21050944;28;20455;-78
2021/12/06 17:41:05;;;;;;;25.90;14.70;;;;;;;2.66;96.97;100167.81;21049713;28;20172;-79
2021/12/06 17:51:08;;;;;;;22.40;11.88;;;;;;;2.87;96.03;100158.59;21057465;28;20047;-78
2021/12/06 18:01:09;;;;;;;20.50;11.70;;;;;;;2.96;93.77;100150.94;21067629;28;20435;-79
2021/12/06 18:11:34;;;;;;;18.65;10.13;;;;;;;3.00;94.05;100144.94;21042389;28;20139;-79
2021/12/06 18:21:37;;;;;;;18.08;10.65;;;;;;;3.05;92.76;100146.72;21016556;28;20040;-78
2021/12/06 18:31:45;;;;;;;16.15;9.35;;;;;;;2.75;93.37;100157.59;21029230;28;20097;-80
2021/12/06 18:41:48;;;;;;;21.02;11.48;;;;;;;2.49;95.07;100159.88;21052923;28;20061;-77
2021/12/06 18:51:52;;;;;;;18.80;10.40;;;;;;;2.56;93.28;100155.66;21062190;28;20302;-76
2021/12/06 19:01:54;;;;;;;20.50;12.93;;;;;;;2.51;95.48;100157.31;21059057;28;20105;-75
2021/12/06 19:11:57;;;;;;;23.55;13.68;;;;;;;2.44;96.04;100148.59;21060364;28;20048;-76
2021/12/06 19:22:16;;;;;;;23.58;14.10;;;;;;;2.37;96.09;100145.91;21059464;28;20418;-76
2021/12/06 19:32:18;;;;;;;30.55;15.02;;;;;;;2.37;96.94;100133.00;21057599;28;20416;-76
2021/12/06 19:42:20;;;;;;;23.60;13.00;;;;;;;2.46;96.72;100123.66;21057245;28;20044;-77
2021/12/06 19:52:23;;;;;;;18.80;11.05;;;;;;;2.56;95.70;100101.38;21056593;28;20052;-77
2021/12/06 20:02:25;;;;;;;14.77;9.30;;;;;;;2.51;94.66;100069.44;21055779;28;20093;-80
2021/12/06 20:12:27;;;;;;;17.50;9.25;;;;;;;2.49;94.18;100060.78;21053796;28;20055;-78
2021/12/06 20:22:30;;;;;;;16.13;9.45;;;;;;;2.45;93.42;100035.78;21035009;28;20051;-77
2021/12/06 20:32:33;;;;;;;15.70;8.55;;;;;;;2.44;93.47;100031.44;21020943;28;20113;-76
2021/12/06 20:42:34;;;;;;;16.33;9.23;;;;;;;2.45;93.76;99999.63;21014980;28;20079;-76
2021/12/06 20:52:36;;;;;;;16.92;9.50;;;;;;;2.49;92.94;99968.66;21018457;28;20056;-76
2021/12/06 21:02:37;;;;;;;17.05;8.85;;;;;;;2.48;93.01;99950.53;21016854;28;20074;-76
2021/12/06 21:22:44;;;;;;;13.77;7.88;;;;;;;2.58;91.32;99911.84;21017343;28;20048;-76
2021/12/06 21:32:46;;;;;;;13.52;6.50;;;;;;;2.67;89.23;99887.81;21015643;28;20459;-72
2021/12/06 21:42:47;;;;;;;10.85;6.13;;;;;;;2.74;88.59;99887.03;21005349;28;20077;-73
2021/12/06 21:52:51;;;;;;;11.30;5.95;;;;;;;2.77;89.88;99875.81;21014948;28;20098;-74
2021/12/06 22:03:03;;;;;;;11.07;5.57;;;;;;;2.85;87.65;99857.78;21013953;28;20052;-73
2021/12/06 22:13:05;;;;;;;9.60;5.43;;;;;;;2.77;88.75;99824.97;21013497;28;20509;-73
2021/12/06 22:23:06;;;;;;;9.10;5.03;;;;;;;2.81;87.81;99852.59;21014489;28;20489;-74
2021/12/06 22:33:08;;;;;;;8.73;4.40;;;;;;;2.88;86.92;99844.91;21009898;28;20519;-73
2021/12/06 22:43:13;;;;;;;11.10;5.18;;;;;;;2.96;86.71;99840.63;21027794;28;20116;-73
2021/12/06 22:53:16;;;;;;;7.63;3.47;;;;;;;3.03;83.46;99827.75;21027462;28;20143;-73
2021/12/06 23:03:18;;;;;;;6.05;2.83;;;;;;;3.22;82.18;99804.56;21025007;28;20035;-73
2021/12/06 23:13:20;;;;;;;6.47;3.55;;;;;;;3.25;80.69;99802.81;21031183;28;20087;-73
2021/12/06 23:23:21;;;;;;;9.95;4.38;;;;;;;3.14;87.10;99781.22;21030601;28;20052;-74
2021/12/06 23:33:24;;;;;;;7.03;3.38;;;;;;;2.99;90.33;99778.59;21031147;28;20044;-73
2021/12/06 23:53:47;;;;;;;7.30;3.67;;;;;;;2.63;95.63;99784.41;21029233;28;20056;-72
